createdAt,value
2023-04-18T00:01:48.938Z,97039.78
2023-04-18T00:04:15.946Z,97035.91
2023-04-18T00:06:42.967Z,97036.09
2023-04-18T00:09:09.521Z,97037.72
2023-04-18T00:11:35.950Z,97034.88
2023-04-18T00:14:02.449Z,97029.25
2023-04-18T00:16:29.096Z,97031.41
2023-04-18T00:18:57.033Z,97026.69
2023-04-18T00:21:23.670Z,97029.63
2023-04-18T00:23:50.267Z,97029.34
2023-04-18T00:26:16.968Z,97021.03
2023-04-18T00:28:43.499Z,97017.19
2023-04-18T00:31:10.158Z,97011.22
2023-04-18T00:33:36.754Z,97021.50
2023-04-18T00:36:03.410Z,97015.66
2023-04-18T00:38:29.910Z,97020.56
2023-04-18T00:40:56.364Z,97007.97
2023-04-18T00:43:22.847Z,97013.78
2023-04-18T00:45:49.460Z,97005.94
2023-04-18T00:48:16.015Z,97012.72
2023-04-18T00:50:42.503Z,97016.34
2023-04-18T00:53:09.006Z,97019.63
2023-04-18T00:55:35.537Z,97008.00
2023-04-18T00:58:02.087Z,97008.00
2023-04-18T01:00:28.740Z,97010.38
2023-04-18T01:02:55.825Z,97008.00
2023-04-18T01:05:22.568Z,97011.13
2023-04-18T01:07:49.139Z,97002.31
2023-04-18T01:10:15.857Z,97008.16
2023-04-18T01:12:42.428Z,97013.81
2023-04-18T01:15:08.911Z,97006.56
2023-04-18T01:17:35.474Z,97007.03
2023-04-18T01:20:02.027Z,97005.94
2023-04-18T01:22:28.654Z,97008.75
2023-04-18T01:24:55.198Z,97008.13
2023-04-18T01:27:21.743Z,97000.91
2023-04-18T01:29:48.308Z,97011.13
2023-04-18T01:32:14.825Z,97013.78
2023-04-18T01:34:41.574Z,97009.94
2023-04-18T01:37:08.024Z,97009.63
2023-04-18T01:39:34.580Z,97007.84
2023-04-18T01:42:01.079Z,97000.59
2023-04-18T01:44:27.617Z,97002.31
2023-04-18T01:46:54.173Z,96997.44
2023-04-18T01:49:20.824Z,97003.72
2023-04-18T01:51:47.324Z,97009.38
2023-04-18T01:54:13.992Z,96994.91
2023-04-18T01:56:40.681Z,97007.50
2023-04-18T01:59:07.128Z,96994.44
2023-04-18T02:01:33.659Z,97003.44
2023-04-18T02:04:00.310Z,97005.47
2023-04-18T02:06:26.820Z,97010.66
2023-04-18T02:08:53.347Z,97007.38
2023-04-18T02:11:19.954Z,97010.81
2023-04-18T02:13:46.532Z,97014.94
2023-04-18T02:16:13.214Z,97016.47
2023-04-18T02:18:39.691Z,97015.25
2023-04-18T02:21:06.292Z,97019.47
2023-04-18T02:23:32.897Z,97014.13
2023-04-18T02:25:59.477Z,97023.88
2023-04-18T02:28:26.016Z,97029.53
2023-04-18T02:30:52.476Z,97027.03
2023-04-18T02:33:19.131Z,97032.41
2023-04-18T02:35:45.757Z,97031.78
2023-04-18T02:38:12.233Z,97025.91
2023-04-18T02:40:38.656Z,97024.81
2023-04-18T02:43:05.102Z,97028.44
2023-04-18T02:45:31.730Z,97024.19
2023-04-18T02:47:58.353Z,97025.47
2023-04-18T02:50:24.918Z,97023.56
2023-04-18T02:52:51.617Z,97027.19
2023-04-18T02:55:18.217Z,97022.94
2023-04-18T02:57:44.761Z,97031.44
2023-04-18T03:00:11.324Z,97029.84
2023-04-18T03:02:37.873Z,97028.31
2023-04-18T03:05:04.557Z,97031.91
2023-04-18T03:07:31.308Z,97033.50
2023-04-18T03:09:57.837Z,97028.91
2023-04-18T03:12:24.443Z,97030.03
2023-04-18T03:14:51.050Z,97024.84
2023-04-18T03:17:17.709Z,97022.16
2023-04-18T03:19:44.205Z,97020.59
2023-04-18T03:22:10.622Z,97022.00
2023-04-18T03:24:37.138Z,97021.38
2023-04-18T03:27:03.672Z,97022.00
2023-04-18T03:29:30.144Z,97022.63
2023-04-18T03:31:56.695Z,97023.09
2023-04-18T03:34:23.213Z,97022.78
2023-04-18T03:36:49.775Z,97019.94
2023-04-18T03:39:16.401Z,97023.75
2023-04-18T03:41:42.873Z,97019.00
2023-04-18T03:44:09.297Z,97016.19
2023-04-18T03:46:35.985Z,97021.84
2023-04-18T03:49:02.590Z,97019.94
2023-04-18T03:51:29.121Z,97021.38
2023-04-18T03:53:55.663Z,97021.06
2023-04-18T03:56:24.413Z,97023.09
2023-04-18T03:58:50.926Z,97017.75
2023-04-18T04:01:17.566Z,97024.34
2023-04-18T04:03:44.275Z,97028.91
2023-04-18T04:06:10.867Z,97019.16
2023-04-18T04:08:37.569Z,97017.91
2023-04-18T04:11:06.960Z,97023.00
2023-04-18T04:13:33.516Z,97029.22
2023-04-18T04:16:00.148Z,97027.94
2023-04-18T04:18:26.751Z,97027.28
2023-04-18T04:20:53.425Z,97025.13
2023-04-18T04:23:19.896Z,97032.22
2023-04-18T04:25:46.342Z,97032.41
2023-04-18T04:28:12.884Z,97027.50
2023-04-18T04:30:39.412Z,97035.84
2023-04-18T04:33:05.995Z,97036.00
2023-04-18T04:35:32.497Z,97040.91
2023-04-18T04:37:58.953Z,97033.19
2023-04-18T04:42:51.324Z,97038.06
2023-04-18T04:45:17.961Z,97042.94
2023-04-18T04:47:44.664Z,97042.31
2023-04-18T04:50:11.267Z,97037.41
2023-04-18T04:52:37.850Z,97039.47
2023-04-18T04:55:04.479Z,97049.06
2023-04-18T04:57:31.026Z,97041.16
2023-04-18T04:59:57.492Z,97045.41
2023-04-18T05:02:24.214Z,97048.88
2023-04-18T05:04:50.915Z,97043.56
2023-04-18T05:07:17.364Z,97037.72
2023-04-18T05:09:43.801Z,97043.38
2023-04-18T05:12:10.332Z,97038.97
2023-04-18T05:14:36.915Z,97046.84
2023-04-18T05:17:03.591Z,97042.28
2023-04-18T05:19:30.156Z,97042.63
2023-04-18T05:21:56.633Z,97044.34
2023-04-18T05:24:23.088Z,97038.81
2023-04-18T05:26:49.794Z,97041.34
2023-04-18T05:29:16.264Z,97051.28
2023-04-18T05:31:42.712Z,97047.63
2023-04-18T05:34:09.324Z,97052.53
2023-04-18T05:36:38.817Z,97053.78
2023-04-18T05:39:05.290Z,97050.16
2023-04-18T05:41:31.758Z,97053.19
2023-04-18T05:44:05.491Z,97055.84
2023-04-18T05:46:32.501Z,97053.19
2023-04-18T05:48:59.115Z,97055.69
2023-04-18T05:51:25.605Z,97056.97
2023-04-18T05:53:52.090Z,97063.56
2023-04-18T05:56:18.633Z,97058.84
2023-04-18T05:58:45.197Z,97055.75
2023-04-18T06:01:14.825Z,97061.25
2023-04-18T06:03:41.529Z,97064.22
2023-04-18T06:06:08.292Z,97069.59
2023-04-18T06:08:34.874Z,97068.81
2023-04-18T06:11:01.417Z,97071.31
2023-04-18T06:13:27.885Z,97073.84
2023-04-18T06:15:54.334Z,97071.66
2023-04-18T06:18:20.856Z,97074.81
2023-04-18T06:20:47.317Z,97083.78
2023-04-18T06:23:13.811Z,97078.41
2023-04-18T06:25:40.450Z,97078.25
2023-04-18T06:28:06.941Z,97085.38
2023-04-18T06:30:33.484Z,97081.91
2023-04-18T06:33:00.007Z,97083.47
2023-04-18T06:35:26.808Z,97081.59
2023-04-18T06:37:53.418Z,97088.69
2023-04-18T06:40:19.817Z,97091.84
2023-04-18T06:42:46.274Z,97088.81
2023-04-18T06:45:12.803Z,97088.03
2023-04-18T06:47:39.343Z,97091.19
2023-04-18T06:50:05.875Z,97092.63
2023-04-18T06:52:32.456Z,97087.59
2023-04-18T06:54:58.914Z,97092.91
2023-04-18T06:57:25.466Z,97095.59
2023-04-18T06:59:52.161Z,97090.53
2023-04-18T07:02:18.741Z,97079.19
2023-04-18T07:04:45.328Z,97080.91
2023-04-18T07:07:11.773Z,97085.34
2023-04-18T07:09:38.188Z,97077.78
2023-04-18T07:12:04.665Z,97088.97
2023-04-18T07:14:32.887Z,97084.41
2023-04-18T07:17:03.507Z,97079.63
2023-04-18T07:19:30.027Z,97083.63
2023-04-18T07:21:56.534Z,97082.81
2023-04-18T07:24:22.947Z,97082.97
2023-04-18T07:26:49.445Z,97078.88
2023-04-18T07:29:15.906Z,97083.47
2023-04-18T07:31:42.422Z,97079.50
2023-04-18T07:34:08.901Z,97074.47
2023-04-18T07:36:35.398Z,97073.53
2023-04-18T07:39:01.870Z,97071.97
2023-04-18T07:41:28.382Z,97075.75
2023-04-18T07:43:54.916Z,97072.59
2023-04-18T07:46:21.518Z,97069.59
2023-04-18T07:48:48.089Z,97069.28
2023-04-18T07:51:17.521Z,97072.75
2023-04-18T07:56:10.673Z,97066.28
2023-04-18T07:58:37.095Z,97063.59
2023-04-18T08:01:03.865Z,97068.19
2023-04-18T08:03:30.543Z,97062.66
2023-04-18T08:05:57.242Z,97062.66
2023-04-18T08:08:23.748Z,97054.78
2023-04-18T08:10:50.173Z,97056.06
2023-04-18T08:13:16.613Z,97058.72
2023-04-18T08:15:43.312Z,97051.34
2023-04-18T08:18:12.846Z,97051.34
2023-04-18T08:20:39.366Z,97052.28
2023-04-18T08:23:09.567Z,97056.53
2023-04-18T08:25:37.873Z,97050.22
2023-04-18T08:28:04.422Z,97048.19
2023-04-18T08:30:30.992Z,97051.03
2023-04-18T08:32:57.458Z,97052.94
2023-04-18T08:35:23.921Z,97048.66
2023-04-18T08:37:50.379Z,97050.09
2023-04-18T08:40:16.885Z,97048.97
2023-04-18T08:42:43.309Z,97059.22
2023-04-18T08:45:12.886Z,97051.50
2023-04-18T08:47:39.428Z,97045.19
2023-04-18T08:50:05.845Z,97057.63
2023-04-18T08:52:32.323Z,97053.84
2023-04-18T08:54:58.782Z,97054.78
2023-04-18T08:57:25.171Z,97049.16
2023-04-18T08:59:51.690Z,97049.78
2023-04-18T09:02:18.209Z,97050.56
2023-04-18T09:04:44.717Z,97047.84
2023-04-18T09:07:11.252Z,97043.78
2023-04-18T09:09:37.760Z,97052.47
2023-04-18T09:12:04.248Z,97049.78
2023-04-18T09:14:30.790Z,97046.91
2023-04-18T09:16:57.427Z,97040.47
2023-04-18T09:19:23.996Z,97042.22
2023-04-18T09:21:50.579Z,97045.03
2023-04-18T09:24:17.150Z,97043.00
2023-04-18T09:26:43.708Z,97049.78
2023-04-18T09:29:10.320Z,97049.09
2023-04-18T09:31:36.869Z,97044.88
2023-04-18T09:34:03.470Z,97046.00
2023-04-18T09:36:30.014Z,97046.94
2023-04-18T09:38:57.227Z,97051.50
2023-04-18T09:41:24.033Z,97046.16
2023-04-18T09:43:50.645Z,97049.00
2023-04-18T09:46:17.204Z,97049.00
2023-04-18T09:48:43.740Z,97052.13
2023-04-18T09:51:10.328Z,97052.13
2023-04-18T09:53:36.888Z,97054.66
2023-04-18T09:56:03.460Z,97050.09
2023-04-18T09:58:30.111Z,97051.66
2023-04-18T10:00:56.678Z,97057.19
2023-04-18T10:03:23.253Z,97054.66
2023-04-18T10:05:49.823Z,97045.34
2023-04-18T10:08:16.401Z,97050.88
2023-04-18T10:10:42.823Z,97045.03
2023-04-18T10:13:09.374Z,97040.31
2023-04-18T10:15:36.010Z,97041.25
2023-04-18T10:18:05.113Z,97044.09
2023-04-18T10:20:32.410Z,97038.56
2023-04-18T10:22:58.971Z,97039.69
2023-04-18T10:25:25.503Z,97034.97
2023-04-18T10:27:52.116Z,97040.16
2023-04-18T10:30:18.732Z,97039.22
2023-04-18T10:32:45.290Z,97040.78
2023-04-18T10:35:11.950Z,97031.81
2023-04-18T10:37:38.475Z,97037.16
2023-04-18T10:40:04.915Z,97031.00
2023-04-18T10:42:31.506Z,97025.81
2023-04-18T10:45:01.199Z,97024.09
2023-04-18T10:47:27.750Z,97025.19
2023-04-18T10:49:54.361Z,97022.66
2023-04-18T10:52:20.877Z,97014.16
2023-04-18T10:54:47.423Z,97018.41
2023-04-18T10:57:14.005Z,97013.84
2023-04-18T10:59:40.545Z,97009.75
2023-04-18T11:02:07.074Z,97014.78
2023-04-18T11:04:33.629Z,97020.13
2023-04-18T11:07:00.143Z,97009.09
2023-04-18T11:09:29.701Z,96998.22
2023-04-18T11:11:56.195Z,96999.81
2023-04-18T11:14:22.669Z,97000.75
2023-04-18T11:16:49.286Z,96985.78
2023-04-18T11:19:15.891Z,96985.47
2023-04-18T11:21:42.372Z,96983.56
2023-04-18T11:24:08.864Z,96984.69
2023-04-18T11:26:35.736Z,96990.97
2023-04-18T11:29:02.768Z,96989.41
2023-04-18T11:31:29.323Z,96979.00
2023-04-18T11:33:55.799Z,96974.88
2023-04-18T11:36:22.297Z,96981.19
2023-04-18T11:38:48.815Z,96973.31
2023-04-18T11:41:15.306Z,96979.59
2023-04-18T11:43:41.747Z,96978.63
2023-04-18T11:46:08.199Z,96977.06
2023-04-18T11:48:34.774Z,96973.91
2023-04-18T11:51:01.272Z,96975.34
2023-04-18T11:53:27.818Z,96970.91
2023-04-18T11:55:54.377Z,96963.97
2023-04-18T11:58:24.017Z,96967.28
2023-04-18T12:00:50.521Z,96966.38
2023-04-18T12:03:17.177Z,96961.81
2023-04-18T12:05:43.876Z,96976.94
2023-04-18T12:08:10.427Z,96974.41
2023-04-18T12:10:36.987Z,96973.00
2023-04-18T12:13:03.493Z,96979.91
2023-04-18T12:15:29.958Z,96971.44
2023-04-18T12:17:56.482Z,96971.53
2023-04-18T12:20:22.966Z,96968.69
2023-04-18T12:22:49.529Z,96961.13
2023-04-18T12:25:16.094Z,96966.50
2023-04-18T12:27:42.586Z,96965.41
2023-04-18T12:30:09.033Z,96969.47
2023-04-18T12:32:35.600Z,96962.41
2023-04-18T12:35:02.111Z,96959.25
2023-04-18T12:37:28.560Z,96970.88
2023-04-18T12:39:55.008Z,96963.19
2023-04-18T12:42:21.458Z,96960.50
2023-04-18T12:44:48.087Z,96966.34
2023-04-18T12:47:14.631Z,96962.06
2023-04-18T12:49:41.132Z,96963.50
2023-04-18T12:52:07.609Z,96962.69
2023-04-18T12:54:34.625Z,96953.78
2023-04-18T12:57:01.756Z,96959.75
2023-04-18T12:59:28.329Z,96966.38
2023-04-18T13:01:57.923Z,96956.03
2023-04-18T13:04:24.585Z,96956.19
2023-04-18T13:06:53.943Z,96956.81
2023-04-18T13:09:20.541Z,96960.63
2023-04-18T13:11:49.046Z,96956.28
2023-04-18T13:14:16.127Z,96964.97
2023-04-18T13:16:44.079Z,96961.09
2023-04-18T13:19:10.745Z,96957.84
2023-04-18T13:21:37.245Z,96947.47
2023-04-18T13:24:03.808Z,96949.28
2023-04-18T13:26:30.313Z,96958.91
2023-04-18T13:28:56.836Z,96962.16
2023-04-18T13:31:23.409Z,96959.00
2023-04-18T13:33:49.942Z,96950.63
2023-04-18T13:36:16.425Z,96949.78
2023-04-18T13:38:43.360Z,96943.97
2023-04-18T13:41:12.696Z,96940.06
2023-04-18T13:43:39.956Z,96943.38
2023-04-18T13:46:06.458Z,96930.19
2023-04-18T13:48:32.972Z,96935.41
2023-04-18T13:50:59.504Z,96936.53
2023-04-18T13:53:26.062Z,96935.09
2023-04-18T13:55:52.507Z,96937.38
2023-04-18T13:58:18.989Z,96932.97
2023-04-18T14:00:45.495Z,96928.59
2023-04-18T14:03:12.143Z,96929.47
2023-04-18T14:05:38.769Z,96924.75
2023-04-18T14:08:05.202Z,96933.34
2023-04-18T14:10:31.772Z,96930.00
2023-04-18T14:12:58.319Z,96921.94
2023-04-18T14:15:24.849Z,96925.13
2023-04-18T14:17:51.411Z,96925.78
2023-04-18T14:20:18.107Z,96931.28
2023-04-18T14:22:44.636Z,96921.84
2023-04-18T14:25:11.258Z,96923.53
2023-04-18T14:27:37.798Z,96924.06
2023-04-18T14:30:04.306Z,96915.44
2023-04-18T14:32:30.793Z,96924.72
2023-04-18T14:34:57.292Z,96930.91
2023-04-18T14:37:23.720Z,96930.22
2023-04-18T14:39:50.272Z,96930.34
2023-04-18T14:42:16.714Z,96921.78
2023-04-18T14:44:43.282Z,96939.75
2023-04-18T14:47:09.801Z,96927.41
2023-04-18T14:49:36.317Z,96928.88
2023-04-18T14:52:02.950Z,96929.88
2023-04-18T14:54:31.557Z,96930.81
2023-04-18T14:56:59.035Z,96925.56
2023-04-18T14:59:25.484Z,96921.75
2023-04-18T15:01:52.226Z,96924.41
2023-04-18T15:04:19.249Z,96925.22
2023-04-18T15:06:46.115Z,96917.69
2023-04-18T15:09:12.647Z,96916.09
2023-04-18T15:11:39.346Z,96911.69
2023-04-18T15:14:05.865Z,96910.63
2023-04-18T15:16:32.445Z,96916.19
2023-04-18T15:18:58.947Z,96913.19
2023-04-18T15:21:25.464Z,96909.94
2023-04-18T15:23:52.000Z,96908.00
2023-04-18T15:26:18.450Z,96914.53
2023-04-18T15:28:44.966Z,96914.22
2023-04-18T15:31:11.529Z,96910.41
2023-04-18T15:33:38.237Z,96921.03
2023-04-18T15:36:04.843Z,96914.38
2023-04-18T15:38:33.004Z,96915.88
2023-04-18T15:40:59.873Z,96922.66
2023-04-18T15:43:26.408Z,96929.22
2023-04-18T15:45:54.361Z,96927.34
2023-04-18T15:48:20.885Z,96926.53
2023-04-18T15:50:47.407Z,96927.84
2023-04-18T15:53:13.876Z,96924.38
2023-04-18T15:55:40.401Z,96931.28
2023-04-18T15:58:06.977Z,96931.22
2023-04-18T16:00:33.471Z,96929.50
2023-04-18T16:03:00.049Z,96928.50
2023-04-18T16:05:26.613Z,96934.44
2023-04-18T16:07:53.089Z,96933.34
2023-04-18T16:10:19.600Z,96931.72
2023-04-18T16:12:46.051Z,96932.38
2023-04-18T16:15:12.573Z,96934.13
2023-04-18T16:17:39.085Z,96939.19
2023-04-18T16:20:05.565Z,96929.06
2023-04-18T16:22:32.154Z,96932.56
2023-04-18T16:24:58.651Z,96939.97
2023-04-18T16:27:25.187Z,96946.44
2023-04-18T16:29:51.683Z,96918.94
2023-04-18T16:32:18.171Z,96921.16
2023-04-18T16:34:44.649Z,96920.81
2023-04-18T16:37:11.081Z,96929.13
2023-04-18T16:39:37.661Z,96926.28
2023-04-18T16:42:04.130Z,96924.72
2023-04-18T16:44:30.770Z,96927.44
2023-04-18T16:46:57.352Z,96947.28
2023-04-18T16:49:23.981Z,96953.25
2023-04-18T16:51:50.463Z,96954.56
2023-04-18T16:54:16.902Z,96960.41
2023-04-18T16:56:43.427Z,96955.94
2023-04-18T16:59:09.884Z,96958.16
2023-04-18T17:01:39.385Z,96947.63
2023-04-18T17:04:05.991Z,96957.66
2023-04-18T17:06:32.553Z,96959.38
2023-04-18T17:08:59.009Z,96960.03
2023-04-18T17:11:25.504Z,96953.41
2023-04-18T17:13:54.970Z,96953.56
2023-04-18T17:16:21.549Z,96956.72
2023-04-18T17:18:50.830Z,96959.31
2023-04-18T17:21:17.340Z,96957.81
2023-04-18T17:23:43.787Z,96960.34
2023-04-18T17:26:13.149Z,96963.00
2023-04-18T17:28:39.690Z,96967.53
2023-04-18T17:31:06.164Z,96961.53
2023-04-18T17:33:32.681Z,96968.13
2023-04-18T17:35:59.120Z,96973.53
2023-04-18T17:38:25.629Z,96976.00
2023-04-18T17:40:52.116Z,96969.59
2023-04-18T17:43:18.715Z,96977.66
2023-04-18T17:45:45.287Z,96978.56
2023-04-18T17:48:11.749Z,96980.56
2023-04-18T17:50:38.275Z,96988.94
2023-04-18T17:53:04.816Z,96986.56
2023-04-18T17:55:31.723Z,96988.44
2023-04-18T17:57:58.186Z,96992.19
2023-04-18T18:00:24.678Z,96998.06
2023-04-18T18:02:51.271Z,96999.75
2023-04-18T18:05:17.876Z,97005.00
2023-04-18T18:07:44.302Z,97007.75
2023-04-18T18:10:13.267Z,97010.56
2023-04-18T18:12:39.822Z,97009.38
2023-04-18T18:15:06.289Z,97011.28
2023-04-18T18:17:32.932Z,97012.72
2023-04-18T18:19:59.497Z,97010.91
2023-04-18T18:22:26.132Z,97013.78
2023-04-18T18:24:52.704Z,97014.84
2023-04-18T18:27:19.256Z,97015.81
2023-04-18T18:29:45.776Z,97013.63
2023-04-18T18:32:12.403Z,96983.75
2023-04-18T18:34:38.899Z,96981.28
2023-04-18T18:37:05.351Z,97024.22
2023-04-18T18:39:31.872Z,97023.22
2023-04-18T18:41:58.356Z,97028.25
2023-04-18T18:44:24.840Z,97029.97
2023-04-18T18:46:51.436Z,97034.88
2023-04-18T18:49:17.993Z,97035.78
2023-04-18T18:51:47.580Z,97050.66
2023-04-18T18:54:16.960Z,97043.53
2023-04-18T18:56:43.576Z,97044.38
2023-04-18T18:59:10.030Z,97048.06
2023-04-18T19:01:36.568Z,97054.06
2023-04-18T19:04:03.264Z,97052.81
2023-04-18T19:06:30.040Z,97061.06
2023-04-18T19:08:57.083Z,97064.09
2023-04-18T19:11:23.620Z,97066.09
2023-04-18T19:13:50.172Z,97068.50
2023-04-18T19:16:16.591Z,97067.13
2023-04-18T19:18:43.040Z,97068.06
2023-04-18T19:21:09.485Z,97061.78
2023-04-18T19:23:35.953Z,97073.28
2023-04-18T19:26:02.423Z,97074.91
2023-04-18T19:28:28.992Z,97072.88
2023-04-18T19:30:55.443Z,97073.13
2023-04-18T19:33:21.872Z,97075.34
2023-04-18T19:35:48.469Z,97079.91
2023-04-18T19:38:14.940Z,97085.50
2023-04-18T19:40:41.462Z,97069.56
2023-04-18T19:43:07.990Z,97067.34
2023-04-18T19:45:34.536Z,97076.19
2023-04-18T19:48:03.909Z,97081.53
2023-04-18T19:50:31.280Z,97072.09
2023-04-18T19:52:57.858Z,97082.47
2023-04-18T19:55:24.289Z,97078.09
2023-04-18T19:57:50.857Z,97081.69
2023-04-18T20:00:17.385Z,97083.13
2023-04-18T20:02:44.064Z,97072.56
2023-04-18T20:05:10.839Z,97085.31
2023-04-18T20:07:37.505Z,97082.53
2023-04-18T20:10:04.118Z,97084.84
2023-04-18T20:12:30.789Z,97088.34
2023-04-18T20:14:57.253Z,97088.50
2023-04-18T20:17:23.854Z,97088.31
2023-04-18T20:19:50.426Z,97096.38
2023-04-18T20:22:16.925Z,97090.88
2023-04-18T20:24:43.505Z,97097.47
2023-04-18T20:27:10.066Z,97085.84
2023-04-18T20:29:36.783Z,97089.78
2023-04-18T20:32:03.295Z,97085.22
2023-04-18T20:34:29.838Z,97086.31
2023-04-18T20:36:57.352Z,97096.88
2023-04-18T20:39:23.850Z,97092.63
2023-04-18T20:41:50.318Z,97092.78
2023-04-18T20:44:16.808Z,97095.63
2023-04-18T20:46:43.356Z,97087.59
2023-04-18T20:49:09.899Z,97094.69
2023-04-18T20:51:36.378Z,97099.09
2023-04-18T20:54:06.003Z,97099.72
2023-04-18T20:56:32.546Z,97100.50
2023-04-18T20:59:01.152Z,97103.34
2023-04-18T21:01:27.763Z,97103.50
2023-04-18T21:03:54.586Z,97096.25
2023-04-18T21:06:21.884Z,97103.50
2023-04-18T21:08:48.351Z,97101.13
2023-04-18T21:11:14.797Z,97103.66
2023-04-18T21:13:41.282Z,97112.03
2023-04-18T21:16:08.054Z,97107.75
2023-04-18T21:18:34.692Z,97115.34
2023-04-18T21:21:01.148Z,97120.22
2023-04-18T21:23:27.729Z,97127.00
2023-04-18T21:25:54.299Z,97129.22
2023-04-18T21:28:20.872Z,97134.25
2023-04-18T21:30:47.371Z,97145.28
2023-04-18T21:33:13.851Z,97152.25
2023-04-18T21:35:40.345Z,97148.28
2023-04-18T21:38:06.854Z,97157.75
2023-04-18T21:40:33.386Z,97158.84
2023-04-18T21:42:59.870Z,97160.44
2023-04-18T21:45:26.497Z,97173.84
2023-04-18T21:47:53.110Z,97173.66
2023-04-18T21:50:19.823Z,97167.50
2023-04-18T21:52:46.318Z,97171.16
2023-04-18T21:55:12.809Z,97180.63
2023-04-18T21:57:42.089Z,97177.78
2023-04-18T22:00:10.267Z,97173.53
2023-04-18T22:02:37.205Z,97181.09
2023-04-18T22:05:03.853Z,97182.50
2023-04-18T22:07:30.488Z,97180.16
2023-04-18T22:09:56.991Z,97184.72
2023-04-18T22:12:23.490Z,97186.47
2023-04-18T22:14:50.039Z,97176.03
2023-04-18T22:17:16.574Z,97182.50
2023-04-18T22:19:43.162Z,97184.06
2023-04-18T22:24:51.068Z,97198.75
2023-04-18T22:27:17.559Z,97196.69
2023-04-18T22:29:44.160Z,97192.59
2023-04-18T22:32:10.637Z,97186.47
2023-04-18T22:34:37.237Z,97196.06
2023-04-18T22:37:03.724Z,97191.03
2023-04-18T22:39:30.235Z,97195.75
2023-04-18T22:41:56.732Z,97191.97
2023-04-18T22:44:23.284Z,97201.75
2023-04-18T22:46:49.826Z,97209.94
2023-04-18T22:49:16.252Z,97209.59
2023-04-18T22:51:42.786Z,97211.16
2023-04-18T22:54:09.295Z,97212.13
2023-04-18T22:56:35.923Z,97212.91
2023-04-18T22:59:02.431Z,97225.22
2023-04-18T23:01:28.931Z,97222.53
2023-04-18T23:03:55.622Z,97222.69
2023-04-18T23:06:22.387Z,97228.38
2023-04-18T23:08:48.928Z,97223.63
2023-04-18T23:11:15.572Z,97221.91
2023-04-18T23:13:42.231Z,97223.94
2023-04-18T23:16:08.740Z,97228.53
2023-04-18T23:18:35.321Z,97227.91
2023-04-18T23:21:04.539Z,97238.13
2023-04-18T23:23:31.155Z,97231.06
2023-04-18T23:26:00.677Z,97234.84
2023-04-18T23:28:27.190Z,97229.00
2023-04-18T23:30:53.847Z,97232.31
2023-04-18T23:33:20.269Z,97232.00
2023-04-18T23:35:46.786Z,97234.81
2023-04-18T23:38:13.256Z,97242.53
2023-04-18T23:40:39.814Z,97238.09
2023-04-18T23:43:06.389Z,97236.69
2023-04-18T23:45:32.900Z,97236.69
2023-04-18T23:47:59.443Z,97237.16
2023-04-18T23:50:25.914Z,97245.38
2023-04-18T23:52:52.452Z,97247.41
2023-04-18T23:55:19.045Z,97245.56
2023-04-18T23:57:45.607Z,97250.13
